createdAt,value
2019-01-20T00:01:13.319Z,101548.37
2019-01-20T00:03:43.154Z,101553.95
2019-01-20T00:06:12.612Z,101549.51
2019-01-20T00:08:42.107Z,101551.95
2019-01-20T00:11:16.548Z,101548.73
2019-01-20T00:13:42.926Z,101546.06
2019-01-20T00:16:12.773Z,101551.39
2019-01-20T00:18:42.822Z,101541.67
2019-01-20T00:21:12.337Z,101541.34
2019-01-20T00:23:41.811Z,101541.67
2019-01-20T00:26:11.335Z,101536.06
2019-01-20T00:28:40.806Z,101543.17
2019-01-20T00:31:10.506Z,101537.73
2019-01-20T00:33:40.537Z,101541.04
2019-01-20T00:36:10.048Z,101535.40
2019-01-20T00:38:39.494Z,101540.42
2019-01-20T00:41:09.457Z,101537.17
2019-01-20T00:43:38.923Z,101538.73
2019-01-20T00:46:08.465Z,101536.27
2019-01-20T00:48:37.992Z,101533.95
2019-01-20T00:51:07.531Z,101537.72
2019-01-20T00:53:37.164Z,101530.05
2019-01-20T00:56:06.726Z,101533.66
2019-01-20T00:58:36.218Z,101537.10
2019-01-20T01:01:06.494Z,101537.27
2019-01-20T01:03:36.252Z,101539.93
2019-01-20T01:06:05.790Z,101529.13
2019-01-20T01:08:35.260Z,101544.58
2019-01-20T01:11:04.852Z,101532.58
2019-01-20T01:13:34.414Z,101536.62
2019-01-20T01:16:04.080Z,101536.19
2019-01-20T01:18:33.590Z,101543.72
2019-01-20T01:21:03.247Z,101539.47
2019-01-20T01:23:32.732Z,101538.05
2019-01-20T01:26:02.546Z,101536.32
2019-01-20T01:28:32.068Z,101531.48
2019-01-20T01:31:01.534Z,101544.81
2019-01-20T01:33:31.041Z,101537.29
2019-01-20T01:36:00.530Z,101534.87
2019-01-20T01:38:30.021Z,101543.09
2019-01-20T01:40:59.522Z,101536.58
2019-01-20T01:43:29.019Z,101546.15
2019-01-20T01:45:58.525Z,101540.67
2019-01-20T01:48:28.148Z,101529.78
2019-01-20T01:50:57.624Z,101526.02
2019-01-20T01:53:27.106Z,101539.18
2019-01-20T01:55:56.730Z,101534.41
2019-01-20T01:58:26.218Z,101534.48
2019-01-20T02:00:55.716Z,101539.33
2019-01-20T02:03:25.270Z,101528.84
2019-01-20T02:05:54.742Z,101530.33
2019-01-20T02:08:24.420Z,101528.98
2019-01-20T02:10:54.352Z,101530.08
2019-01-20T02:13:23.940Z,101526.63
2019-01-20T02:15:53.748Z,101522.64
2019-01-20T02:18:23.331Z,101530.77
2019-01-20T02:20:52.911Z,101529.20
2019-01-20T02:23:22.408Z,101526.76
2019-01-20T02:25:51.913Z,101535.68
2019-01-20T02:28:21.845Z,101538.07
2019-01-20T02:30:51.348Z,101535.56
2019-01-20T02:33:21.014Z,101544.38
2019-01-20T02:35:50.542Z,101542.25
2019-01-20T02:38:19.993Z,101540.98
2019-01-20T02:40:49.512Z,101546.71
2019-01-20T02:43:18.989Z,101552.11
2019-01-20T02:45:48.488Z,101541.17
2019-01-20T02:48:17.965Z,101542.33
2019-01-20T02:50:47.450Z,101546.48
2019-01-20T02:53:16.952Z,101547.74
2019-01-20T02:55:46.734Z,101542.25
2019-01-20T02:58:16.244Z,101546.79
2019-01-20T03:00:45.745Z,101544.12
2019-01-20T03:03:15.255Z,101551.81
2019-01-20T03:05:44.749Z,101551.17
2019-01-20T03:08:14.228Z,101550.78
2019-01-20T03:10:43.739Z,101551.56
2019-01-20T03:13:13.229Z,101552.75
2019-01-20T03:15:42.786Z,101549.38
2019-01-20T03:18:12.666Z,101552.00
2019-01-20T03:20:42.164Z,101548.84
2019-01-20T03:23:11.654Z,101549.09
2019-01-20T03:25:41.163Z,101550.52
2019-01-20T03:28:11.566Z,101556.73
2019-01-20T03:30:41.544Z,101549.55
2019-01-20T03:33:11.074Z,101545.23
2019-01-20T03:35:40.637Z,101543.33
2019-01-20T03:38:10.096Z,101543.09
2019-01-20T03:40:39.904Z,101546.84
2019-01-20T03:43:09.388Z,101538.37
2019-01-20T03:45:39.008Z,101545.45
2019-01-20T03:48:08.569Z,101536.05
2019-01-20T03:50:38.039Z,101534.94
2019-01-20T03:53:07.536Z,101535.40
2019-01-20T03:55:37.052Z,101533.56
2019-01-20T03:58:06.634Z,101533.91
2019-01-20T04:00:36.371Z,101538.72
2019-01-20T04:03:06.846Z,101536.72
2019-01-20T04:05:36.312Z,101542.14
2019-01-20T04:08:06.341Z,101541.77
2019-01-20T04:10:35.845Z,101529.86
2019-01-20T04:13:05.520Z,101536.99
2019-01-20T04:15:35.043Z,101540.58
2019-01-20T04:18:04.636Z,101535.29
2019-01-20T04:20:34.130Z,101537.91
2019-01-20T04:23:03.638Z,101539.34
2019-01-20T04:25:33.592Z,101540.00
2019-01-20T04:28:03.062Z,101541.15
2019-01-20T04:30:32.558Z,101538.74
2019-01-20T04:33:02.155Z,101543.02
2019-01-20T04:35:31.651Z,101537.90
2019-01-20T04:38:01.160Z,101538.38
2019-01-20T04:40:30.685Z,101535.69
2019-01-20T04:43:00.189Z,101535.55
2019-01-20T04:45:29.686Z,101533.37
2019-01-20T04:47:59.285Z,101544.67
2019-01-20T04:50:28.767Z,101541.78
2019-01-20T04:52:58.228Z,101550.34
2019-01-20T04:55:27.756Z,101543.94
2019-01-20T04:57:57.409Z,101542.55
2019-01-20T05:00:28.119Z,101553.39
2019-01-20T05:02:57.686Z,101552.06
2019-01-20T05:05:27.198Z,101549.80
2019-01-20T05:07:56.687Z,101545.75
2019-01-20T05:10:26.853Z,101538.07
2019-01-20T05:12:56.339Z,101538.37
2019-01-20T05:15:25.825Z,101544.12
2019-01-20T05:17:55.327Z,101546.24
2019-01-20T05:20:24.827Z,101548.24
2019-01-20T05:22:54.759Z,101540.83
2019-01-20T05:25:24.273Z,101539.74
2019-01-20T05:27:53.743Z,101549.94
2019-01-20T05:30:25.436Z,101549.97
2019-01-20T05:32:55.383Z,101555.31
2019-01-20T05:35:24.911Z,101556.89
2019-01-20T05:37:54.385Z,101556.30
2019-01-20T05:40:24.002Z,101554.02
2019-01-20T05:42:53.512Z,101560.43
2019-01-20T05:45:24.991Z,101551.12
2019-01-20T05:47:54.890Z,101558.61
2019-01-20T05:50:24.372Z,101558.46
2019-01-20T05:52:53.861Z,101559.00
2019-01-20T05:55:23.446Z,101562.72
2019-01-20T05:57:52.912Z,101562.20
2019-01-20T06:00:26.329Z,101566.72
2019-01-20T06:02:55.826Z,101569.17
2019-01-20T06:05:25.947Z,101567.81
2019-01-20T06:07:55.391Z,101566.57
2019-01-20T06:10:25.364Z,101573.83
2019-01-20T06:12:54.905Z,101570.45
2019-01-20T06:15:25.295Z,101565.34
2019-01-20T06:17:54.868Z,101572.94
2019-01-20T06:20:24.362Z,101573.22
2019-01-20T06:22:53.901Z,101578.22
2019-01-20T06:25:23.420Z,101566.91
2019-01-20T06:27:52.907Z,101573.44
2019-01-20T06:30:31.316Z,101572.18
2019-01-20T06:33:00.795Z,101569.81
2019-01-20T06:35:30.536Z,101578.61
2019-01-20T06:38:00.057Z,101572.87
2019-01-20T06:40:29.581Z,101571.76
2019-01-20T06:43:02.015Z,101576.89
2019-01-20T06:45:30.303Z,101578.05
2019-01-20T06:47:59.789Z,101576.69
2019-01-20T06:50:29.271Z,101578.76
2019-01-20T06:52:59.743Z,101577.48
2019-01-20T06:55:29.229Z,101580.70
2019-01-20T06:57:58.830Z,101581.94
2019-01-20T07:00:28.323Z,101587.06
2019-01-20T07:02:57.795Z,101589.28
2019-01-20T07:05:27.267Z,101588.98
2019-01-20T07:07:57.035Z,101594.53
2019-01-20T07:10:26.528Z,101598.98
2019-01-20T07:12:56.098Z,101599.80
2019-01-20T07:15:26.872Z,101602.19
2019-01-20T07:17:56.398Z,101608.01
2019-01-20T07:20:25.880Z,101603.89
2019-01-20T07:22:55.421Z,101616.84
2019-01-20T07:25:24.903Z,101616.64
2019-01-20T07:27:54.407Z,101615.20
2019-01-20T07:30:24.112Z,101618.45
2019-01-20T07:32:53.642Z,101629.65
2019-01-20T07:35:23.123Z,101632.84
2019-01-20T07:37:52.761Z,101639.44
2019-01-20T07:40:23.468Z,101643.82
2019-01-20T07:42:53.024Z,101641.98
2019-01-20T07:45:22.613Z,101648.09
2019-01-20T07:47:52.089Z,101654.63
2019-01-20T07:50:24.011Z,101654.22
2019-01-20T07:52:53.690Z,101665.95
2019-01-20T07:55:23.257Z,101658.81
2019-01-20T07:57:52.731Z,101663.44
2019-01-20T08:00:24.865Z,101669.83
2019-01-20T08:02:54.369Z,101665.91
2019-01-20T08:05:23.909Z,101665.35
2019-01-20T08:07:53.491Z,101662.09
2019-01-20T08:10:26.499Z,101663.74
2019-01-20T08:12:56.052Z,101665.52
2019-01-20T08:15:25.885Z,101659.35
2019-01-20T08:17:55.376Z,101665.89
2019-01-20T08:20:26.229Z,101668.12
2019-01-20T08:22:55.721Z,101673.12
2019-01-20T08:25:25.249Z,101677.95
2019-01-20T08:27:54.824Z,101680.89
2019-01-20T08:30:26.994Z,101686.63
2019-01-20T08:32:56.578Z,101685.63
2019-01-20T08:35:26.431Z,101695.63
2019-01-20T08:37:56.032Z,101696.70
2019-01-20T08:40:28.984Z,101683.42
2019-01-20T08:42:58.542Z,101694.48
2019-01-20T08:45:45.314Z,101695.75
2019-01-20T08:48:19.852Z,101690.72
2019-01-20T08:50:49.482Z,101691.52
2019-01-20T08:53:18.972Z,101698.81
2019-01-20T08:55:49.028Z,101702.64
2019-01-20T08:58:19.255Z,101710.00
2019-01-20T09:00:48.883Z,101713.52
2019-01-20T09:03:18.357Z,101715.17
2019-01-20T09:05:47.818Z,101708.84
2019-01-20T09:08:17.365Z,101723.58
2019-01-20T09:10:46.857Z,101730.78
2019-01-20T09:13:16.360Z,101735.73
2019-01-20T09:15:45.866Z,101743.64
2019-01-20T09:18:15.390Z,101743.41
2019-01-20T09:20:44.930Z,101740.99
2019-01-20T09:23:14.864Z,101745.29
2019-01-20T09:25:44.367Z,101739.89
2019-01-20T09:28:13.894Z,101742.79
2019-01-20T09:30:43.922Z,101739.81
2019-01-20T09:33:13.460Z,101741.31
2019-01-20T09:35:42.943Z,101744.75
2019-01-20T09:38:12.510Z,101739.59
2019-01-20T09:40:42.040Z,101743.02
2019-01-20T09:43:11.488Z,101744.82
2019-01-20T09:45:41.652Z,101746.89
2019-01-20T09:48:11.438Z,101744.73
2019-01-20T09:50:40.919Z,101747.05
2019-01-20T09:53:10.436Z,101746.98
2019-01-20T09:55:39.934Z,101744.57
2019-01-20T09:58:09.410Z,101745.72
2019-01-20T10:00:38.974Z,101739.66
2019-01-20T10:03:15.923Z,101748.60
2019-01-20T10:05:39.655Z,101751.70
2019-01-20T10:08:09.532Z,101755.91
2019-01-20T10:10:39.007Z,101749.59
2019-01-20T10:13:08.478Z,101749.41
2019-01-20T10:15:38.294Z,101742.13
2019-01-20T10:18:07.932Z,101742.01
2019-01-20T10:20:37.406Z,101742.61
2019-01-20T10:23:06.904Z,101745.19
2019-01-20T10:25:36.377Z,101748.63
2019-01-20T10:28:07.174Z,101750.75
2019-01-20T10:30:38.804Z,101760.84
2019-01-20T10:33:08.288Z,101757.38
2019-01-20T10:35:39.429Z,101759.41
2019-01-20T10:38:10.288Z,101756.59
2019-01-20T10:40:41.098Z,101763.98
2019-01-20T10:43:10.888Z,101763.38
2019-01-20T10:45:40.826Z,101761.08
2019-01-20T10:48:10.529Z,101757.48
2019-01-20T10:50:40.013Z,101760.31
2019-01-20T10:53:09.530Z,101751.95
2019-01-20T10:55:38.998Z,101754.73
2019-01-20T10:58:08.569Z,101759.31
2019-01-20T11:00:41.178Z,101760.75
2019-01-20T11:03:10.725Z,101757.89
2019-01-20T11:05:40.404Z,101756.67
2019-01-20T11:08:10.294Z,101751.94
2019-01-20T11:10:40.062Z,101750.80
2019-01-20T11:13:11.030Z,101759.79
2019-01-20T11:15:41.095Z,101758.70
2019-01-20T11:18:10.630Z,101753.76
2019-01-20T11:20:40.125Z,101762.55
2019-01-20T11:23:10.132Z,101756.86
2019-01-20T11:25:41.141Z,101765.81
2019-01-20T11:28:10.686Z,101767.38
2019-01-20T11:30:40.433Z,101770.55
2019-01-20T11:33:10.063Z,101776.19
2019-01-20T11:35:39.621Z,101781.48
2019-01-20T11:38:09.222Z,101782.16
2019-01-20T11:40:38.756Z,101786.23
2019-01-20T11:43:08.262Z,101781.17
2019-01-20T11:45:37.832Z,101778.52
2019-01-20T11:48:07.534Z,101772.93
2019-01-20T11:50:37.009Z,101771.48
2019-01-20T11:53:06.607Z,101777.54
2019-01-20T11:55:36.391Z,101768.91
2019-01-20T11:58:05.946Z,101780.47
2019-01-20T12:00:36.830Z,101785.19
2019-01-20T12:03:06.509Z,101788.63
2019-01-20T12:05:36.299Z,101788.61
2019-01-20T12:08:07.304Z,101788.06
2019-01-20T12:10:37.176Z,101784.81
2019-01-20T12:13:08.208Z,101787.77
2019-01-20T12:15:37.785Z,101791.70
2019-01-20T12:18:07.465Z,101785.66
2019-01-20T12:20:37.087Z,101785.55
2019-01-20T12:23:06.753Z,101798.30
2019-01-20T12:25:36.243Z,101783.06
2019-01-20T12:28:06.128Z,101780.11
2019-01-20T12:30:40.369Z,101773.68
2019-01-20T12:33:09.872Z,101775.47
2019-01-20T12:35:39.341Z,101775.99
2019-01-20T12:38:09.241Z,101770.13
2019-01-20T12:40:42.937Z,101762.23
2019-01-20T12:43:12.581Z,101762.32
2019-01-20T12:45:42.720Z,101748.84
2019-01-20T12:48:12.216Z,101749.63
2019-01-20T12:50:41.782Z,101754.25
2019-01-20T12:53:11.345Z,101758.85
2019-01-20T12:55:40.836Z,101763.21
2019-01-20T12:58:10.494Z,101772.27
2019-01-20T13:00:40.043Z,101778.35
2019-01-20T13:03:09.507Z,101777.82
2019-01-20T13:05:38.982Z,101779.49
2019-01-20T13:08:08.921Z,101776.99
2019-01-20T13:10:38.435Z,101776.34
2019-01-20T13:13:07.909Z,101779.77
2019-01-20T13:15:37.570Z,101782.51
2019-01-20T13:18:07.143Z,101781.91
2019-01-20T13:20:36.646Z,101781.94
2019-01-20T13:23:06.225Z,101778.30
2019-01-20T13:25:35.715Z,101784.33
2019-01-20T13:28:05.193Z,101781.61
2019-01-20T13:30:34.767Z,101785.29
2019-01-20T13:33:04.255Z,101781.34
2019-01-20T13:35:33.737Z,101779.55
2019-01-20T13:38:09.959Z,101774.50
2019-01-20T13:40:47.465Z,101774.44
2019-01-20T13:43:16.962Z,101771.77
2019-01-20T13:45:46.507Z,101770.39
2019-01-20T13:48:16.132Z,101770.97
2019-01-20T13:50:45.999Z,101768.11
2019-01-20T13:53:15.487Z,101771.35
2019-01-20T13:55:44.999Z,101775.95
2019-01-20T13:58:14.517Z,101770.86
2019-01-20T14:00:44.010Z,101773.78
2019-01-20T14:03:13.620Z,101776.02
2019-01-20T14:05:43.177Z,101778.20
2019-01-20T14:08:12.696Z,101777.77
2019-01-20T14:10:42.162Z,101776.34
2019-01-20T14:13:11.793Z,101788.47
2019-01-20T14:15:41.310Z,101784.39
2019-01-20T14:18:10.798Z,101783.88
2019-01-20T14:20:46.731Z,101793.36
2019-01-20T14:23:16.259Z,101784.81
2019-01-20T14:25:45.713Z,101790.52
2019-01-20T14:28:15.513Z,101794.34
2019-01-20T14:30:45.099Z,101796.03
2019-01-20T14:33:14.600Z,101796.25
2019-01-20T14:35:44.137Z,101792.06
2019-01-20T14:38:13.644Z,101794.69
2019-01-20T14:40:43.216Z,101798.63
2019-01-20T14:43:12.855Z,101800.44
2019-01-20T14:45:42.394Z,101805.03
2019-01-20T14:48:11.903Z,101804.68
2019-01-20T14:50:41.511Z,101801.34
2019-01-20T14:53:11.006Z,101814.38
2019-01-20T14:55:40.492Z,101813.52
2019-01-20T14:58:10.044Z,101822.83
2019-01-20T15:00:39.668Z,101822.95
2019-01-20T15:03:09.540Z,101828.84
2019-01-20T15:05:39.056Z,101826.41
2019-01-20T15:08:09.371Z,101835.59
2019-01-20T15:10:38.880Z,101830.76
2019-01-20T15:13:08.576Z,101832.75
2019-01-20T15:15:41.321Z,101826.36
2019-01-20T15:18:10.934Z,101830.88
2019-01-20T15:20:40.922Z,101837.17
2019-01-20T15:23:10.539Z,101832.94
2019-01-20T15:25:40.110Z,101835.47
2019-01-20T15:28:10.540Z,101838.63
2019-01-20T15:30:40.089Z,101837.41
2019-01-20T15:33:09.614Z,101840.17
2019-01-20T15:35:39.143Z,101842.81
2019-01-20T15:38:09.201Z,101846.89
2019-01-20T15:40:38.807Z,101841.77
2019-01-20T15:43:08.351Z,101838.48
2019-01-20T15:45:37.850Z,101843.65
2019-01-20T15:48:07.480Z,101841.16
2019-01-20T15:50:37.613Z,101849.73
2019-01-20T15:53:07.208Z,101860.65
2019-01-20T15:55:36.686Z,101850.37
2019-01-20T15:58:06.185Z,101853.51
2019-01-20T16:00:35.686Z,101857.13
2019-01-20T16:03:06.426Z,101853.27
2019-01-20T16:05:35.974Z,101862.26
2019-01-20T16:08:05.468Z,101864.48
2019-01-20T16:10:34.946Z,101869.88
2019-01-20T16:13:05.376Z,101871.94
2019-01-20T16:15:35.609Z,101870.78
2019-01-20T16:18:05.605Z,101884.12
2019-01-20T16:20:35.234Z,101880.83
2019-01-20T16:23:05.161Z,101881.29
2019-01-20T16:25:35.703Z,101881.69
2019-01-20T16:28:05.888Z,101882.55
2019-01-20T16:30:37.810Z,101884.67
2019-01-20T16:33:07.365Z,101882.03
2019-01-20T16:35:36.952Z,101882.66
2019-01-20T16:38:06.428Z,101891.08
2019-01-20T16:40:36.342Z,101890.76
2019-01-20T16:43:06.542Z,101890.69
2019-01-20T16:45:42.604Z,101890.72
2019-01-20T16:48:12.506Z,101885.62
2019-01-20T16:50:42.484Z,101888.67
2019-01-20T16:53:12.618Z,101897.31
2019-01-20T16:55:42.617Z,101900.12
2019-01-20T16:58:12.173Z,101905.81
2019-01-20T17:00:42.399Z,101912.77
2019-01-20T17:03:12.465Z,101912.60
2019-01-20T17:05:42.052Z,101909.44
2019-01-20T17:08:12.204Z,101908.41
2019-01-20T17:10:41.762Z,101911.39
2019-01-20T17:13:11.357Z,101915.00
2019-01-20T17:15:42.466Z,101907.26
2019-01-20T17:18:14.070Z,101912.36
2019-01-20T17:20:43.955Z,101911.64
2019-01-20T17:23:13.454Z,101912.26
2019-01-20T17:25:43.059Z,101906.39
2019-01-20T17:28:12.530Z,101907.19
2019-01-20T17:30:42.976Z,101915.50
2019-01-20T17:33:13.151Z,101916.73
2019-01-20T17:35:42.693Z,101921.59
2019-01-20T17:38:12.251Z,101921.52
2019-01-20T17:40:42.134Z,101927.61
2019-01-20T17:43:11.772Z,101926.31
2019-01-20T17:45:48.489Z,101929.91
2019-01-20T17:48:14.792Z,101924.95
2019-01-20T17:50:44.371Z,101930.72
2019-01-20T17:53:13.998Z,101926.44
2019-01-20T17:55:43.571Z,101927.49
2019-01-20T17:58:13.146Z,101930.39
2019-01-20T18:00:44.380Z,101930.55
2019-01-20T18:03:14.126Z,101932.31
2019-01-20T18:05:43.717Z,101927.92
2019-01-20T18:08:13.596Z,101925.11
2019-01-20T18:10:43.127Z,101933.20
2019-01-20T18:13:12.706Z,101932.29
2019-01-20T18:15:42.253Z,101929.09
2019-01-20T18:18:12.219Z,101931.76
2019-01-20T18:20:41.858Z,101931.63
2019-01-20T18:23:11.499Z,101938.01
2019-01-20T18:25:41.054Z,101935.31
2019-01-20T18:28:10.639Z,101953.45
2019-01-20T18:30:40.194Z,101953.52
2019-01-20T18:33:09.859Z,101948.45
2019-01-20T18:35:39.442Z,101963.83
2019-01-20T18:38:08.949Z,101962.20
2019-01-20T18:40:38.613Z,101967.45
2019-01-20T18:43:08.133Z,101963.51
2019-01-20T18:45:37.640Z,101964.70
2019-01-20T18:48:07.297Z,101963.44
2019-01-20T18:50:39.048Z,101960.66
2019-01-20T18:53:08.557Z,101972.88
2019-01-20T18:55:38.270Z,101969.92
2019-01-20T18:58:07.801Z,101972.23
2019-01-20T19:00:44.836Z,101967.23
2019-01-20T19:03:14.321Z,101976.63
2019-01-20T19:05:43.864Z,101972.48
2019-01-20T19:08:13.997Z,101979.53
2019-01-20T19:10:43.527Z,101975.98
2019-01-20T19:13:13.057Z,101987.50
2019-01-20T19:15:42.595Z,101987.16
2019-01-20T19:18:18.652Z,101980.77
2019-01-20T19:20:43.460Z,101984.23
2019-01-20T19:23:13.434Z,101995.02
2019-01-20T19:25:42.943Z,101991.40
2019-01-20T19:28:12.460Z,101995.75
2019-01-20T19:30:42.007Z,101997.28
2019-01-20T19:33:11.495Z,102000.98
2019-01-20T19:35:41.004Z,102004.69
2019-01-20T19:38:10.637Z,102003.12
2019-01-20T19:40:40.623Z,102005.25
2019-01-20T19:43:10.149Z,102009.87
2019-01-20T19:45:39.740Z,102008.31
2019-01-20T19:48:15.715Z,102007.67
2019-01-20T19:50:40.560Z,102009.91
2019-01-20T19:53:10.108Z,102009.93
2019-01-20T19:55:39.946Z,102009.47
2019-01-20T19:58:09.948Z,102007.71
2019-01-20T20:00:39.550Z,102015.20
2019-01-20T20:03:09.101Z,102007.85
2019-01-20T20:05:38.602Z,102010.70
2019-01-20T20:08:08.527Z,102014.62
2019-01-20T20:10:38.467Z,102019.89
2019-01-20T20:13:09.559Z,102018.69
2019-01-20T20:15:39.206Z,102032.20
2019-01-20T20:18:08.792Z,102025.44
2019-01-20T20:20:38.364Z,102021.45
2019-01-20T20:23:07.905Z,102035.19
2019-01-20T20:25:37.493Z,102022.64
2019-01-20T20:28:06.997Z,102024.28
2019-01-20T20:30:37.513Z,102027.80
2019-01-20T20:33:07.928Z,102038.22
2019-01-20T20:35:37.973Z,102031.58
2019-01-20T20:38:08.000Z,102033.93
2019-01-20T20:40:37.559Z,102036.50
2019-01-20T20:43:07.063Z,102030.19
2019-01-20T20:45:36.600Z,102041.84
2019-01-20T20:48:06.313Z,102040.23
2019-01-20T20:50:35.806Z,102044.11
2019-01-20T20:53:05.815Z,102046.87
2019-01-20T20:55:35.427Z,102045.61
2019-01-20T20:58:05.233Z,102048.09
2019-01-20T21:00:38.749Z,102063.02
2019-01-20T21:03:11.701Z,102064.01
2019-01-20T21:05:41.248Z,102069.72
2019-01-20T21:08:11.306Z,102069.31
2019-01-20T21:10:40.845Z,102075.97
2019-01-20T21:13:10.503Z,102069.44
2019-01-20T21:15:40.059Z,102067.52
2019-01-20T21:18:09.646Z,102065.28
2019-01-20T21:20:39.169Z,102062.33
2019-01-20T21:23:12.375Z,102068.67
2019-01-20T21:25:39.953Z,102071.12
2019-01-20T21:28:09.564Z,102073.94
2019-01-20T21:30:39.390Z,102073.77
2019-01-20T21:33:08.987Z,102076.31
2019-01-20T21:35:38.614Z,102080.02
2019-01-20T21:38:08.151Z,102085.50
2019-01-20T21:40:37.632Z,102077.70
2019-01-20T21:43:07.207Z,102091.92
2019-01-20T21:45:37.207Z,102101.02
2019-01-20T21:48:06.786Z,102102.30
2019-01-20T21:50:36.261Z,102100.82
2019-01-20T21:53:05.928Z,102113.88
2019-01-20T21:55:35.436Z,102110.02
2019-01-20T21:58:05.091Z,102112.42
2019-01-20T22:00:34.660Z,102114.22
2019-01-20T22:03:04.200Z,102121.45
2019-01-20T22:05:33.706Z,102124.11
2019-01-20T22:08:03.270Z,102113.21
2019-01-20T22:10:32.773Z,102110.31
2019-01-20T22:13:02.259Z,102106.86
2019-01-20T22:15:32.215Z,102103.08
2019-01-20T22:18:03.165Z,102111.30
2019-01-20T22:20:32.802Z,102109.45
2019-01-20T22:23:02.304Z,102111.48
2019-01-20T22:25:31.807Z,102109.25
2019-01-20T22:28:01.331Z,102117.05
2019-01-20T22:30:30.863Z,102113.73
2019-01-20T22:33:00.646Z,102110.47
2019-01-20T22:35:30.175Z,102116.17
2019-01-20T22:37:59.787Z,102111.34
2019-01-20T22:40:29.325Z,102107.17
2019-01-20T22:42:58.816Z,102113.38
2019-01-20T22:45:28.533Z,102113.89
2019-01-20T22:47:58.000Z,102109.15
2019-01-20T22:50:27.541Z,102114.78
2019-01-20T22:52:57.117Z,102106.03
2019-01-20T22:55:26.723Z,102112.36
2019-01-20T22:57:56.281Z,102117.20
2019-01-20T23:00:44.209Z,102121.30
2019-01-20T23:03:13.718Z,102118.29
2019-01-20T23:05:43.279Z,102122.38
2019-01-20T23:08:12.924Z,102113.84
2019-01-20T23:10:42.475Z,102104.36
2019-01-20T23:13:12.035Z,102110.38
2019-01-20T23:15:41.785Z,102104.20
2019-01-20T23:18:11.439Z,102114.66
2019-01-20T23:20:41.024Z,102110.99
2019-01-20T23:23:10.833Z,102104.86
2019-01-20T23:25:40.363Z,102111.41
2019-01-20T23:28:09.844Z,102106.44
2019-01-20T23:30:39.448Z,102102.10
2019-01-20T23:33:08.975Z,102098.99
2019-01-20T23:35:38.473Z,102100.09
2019-01-20T23:38:08.003Z,102107.02
2019-01-20T23:40:37.505Z,102096.14
2019-01-20T23:43:07.084Z,102098.60
2019-01-20T23:45:36.985Z,102100.86
2019-01-20T23:48:06.475Z,102102.04
2019-01-20T23:50:36.248Z,102105.95
2019-01-20T23:53:06.511Z,102107.33
2019-01-20T23:55:36.005Z,102111.60
2019-01-20T23:58:06.611Z,102109.03
